createdAt,value
2022-12-27T00:01:09.521Z,95.66
2022-12-27T00:06:15.313Z,95.70
2022-12-27T00:11:18.325Z,94.84
2022-12-27T00:16:20.591Z,94.87
2022-12-27T00:21:22.315Z,94.78
2022-12-27T00:26:25.036Z,94.63
2022-12-27T00:31:27.770Z,94.91
2022-12-27T00:36:29.980Z,94.34
2022-12-27T00:41:31.415Z,94.28
2022-12-27T00:46:32.872Z,94.71
2022-12-27T00:51:36.514Z,95.16
2022-12-27T00:56:37.859Z,94.66
2022-12-27T01:01:39.493Z,94.85
2022-12-27T01:06:40.918Z,94.40
2022-12-27T01:11:42.272Z,94.30
2022-12-27T01:16:44.082Z,94.38
2022-12-27T01:21:45.456Z,93.70
2022-12-27T01:26:46.854Z,93.78
2022-12-27T01:31:49.945Z,94.13
2022-12-27T01:36:51.276Z,94.79
2022-12-27T01:42:11.309Z,94.69
2022-12-27T01:47:16.103Z,94.36
2022-12-27T01:52:17.453Z,94.30
2022-12-27T01:57:18.810Z,94.07
2022-12-27T02:02:22.319Z,93.82
2022-12-27T02:07:31.257Z,93.83
2022-12-27T02:12:32.616Z,94.64
2022-12-27T02:17:34.551Z,94.68
2022-12-27T02:22:55.811Z,94.10
2022-12-27T02:28:29.722Z,92.97
2022-12-27T02:33:34.751Z,92.80
2022-12-27T02:38:37.710Z,93.28
2022-12-27T02:43:58.017Z,93.95
2022-12-27T02:49:17.727Z,93.32
2022-12-27T02:54:32.073Z,92.18
2022-12-27T02:59:59.693Z,92.50
2022-12-27T03:05:14.465Z,92.40
2022-12-27T03:10:49.853Z,92.88
2022-12-27T03:16:09.835Z,93.41
2022-12-27T03:21:31.516Z,93.11
2022-12-27T03:26:34.466Z,93.78
2022-12-27T03:31:57.519Z,93.13
2022-12-27T03:37:20.501Z,92.71
2022-12-27T03:42:43.235Z,92.23
2022-12-27T03:47:50.300Z,92.16
2022-12-27T03:52:55.866Z,92.05
2022-12-27T03:57:57.329Z,92.37
2022-12-27T04:02:58.970Z,91.59
2022-12-27T04:08:19.399Z,91.18
2022-12-27T04:13:39.422Z,91.07
2022-12-27T04:18:59.353Z,91.34
2022-12-27T04:24:19.582Z,91.25
2022-12-27T04:29:39.308Z,90.19
2022-12-27T04:34:43.442Z,90.08
2022-12-27T04:40:03.898Z,90.30
2022-12-27T04:45:34.728Z,90.83
2022-12-27T04:50:54.603Z,90.04
2022-12-27T04:55:56.132Z,90.63
2022-12-27T05:01:17.479Z,92.30
2022-12-27T05:06:19.740Z,92.11
2022-12-27T05:11:39.915Z,92.44
2022-12-27T05:16:42.624Z,91.92
2022-12-27T05:22:03.499Z,91.66
2022-12-27T05:27:04.856Z,91.69
2022-12-27T05:32:12.618Z,91.92
2022-12-27T05:37:14.581Z,92.66
2022-12-27T05:42:15.886Z,92.66
2022-12-27T05:47:17.213Z,92.72
2022-12-27T05:52:19.027Z,92.16
2022-12-27T05:57:20.608Z,92.24
2022-12-27T06:02:22.078Z,91.41
2022-12-27T06:07:23.556Z,91.38
2022-12-27T06:12:24.933Z,90.99
2022-12-27T06:17:26.277Z,91.05
2022-12-27T06:22:27.614Z,90.45
2022-12-27T06:27:28.961Z,91.69
2022-12-27T06:32:30.449Z,91.54
2022-12-27T06:37:31.798Z,90.74
2022-12-27T06:42:33.109Z,90.95
2022-12-27T06:47:34.451Z,92.12
2022-12-27T06:52:35.790Z,91.75
2022-12-27T06:57:37.209Z,92.39
2022-12-27T07:02:39.633Z,91.31
2022-12-27T07:07:41.388Z,91.21
2022-12-27T07:12:42.693Z,91.36
2022-12-27T07:17:44.015Z,91.55
2022-12-27T07:22:45.330Z,91.68
2022-12-27T07:27:46.809Z,92.56
2022-12-27T07:32:49.554Z,92.47
2022-12-27T07:37:51.514Z,92.05
2022-12-27T07:42:53.699Z,92.92
2022-12-27T07:47:57.012Z,92.78
2022-12-27T07:52:58.374Z,93.18
2022-12-27T07:57:59.748Z,93.18
2022-12-27T08:03:01.149Z,93.21
2022-12-27T08:08:02.892Z,93.36
2022-12-27T08:13:05.729Z,93.68
2022-12-27T08:18:07.109Z,93.58
2022-12-27T08:23:09.870Z,94.89
2022-12-27T08:28:13.281Z,95.32
2022-12-27T08:33:15.245Z,95.82
2022-12-27T08:38:16.818Z,95.37
2022-12-27T08:43:18.215Z,95.54
2022-12-27T08:48:19.881Z,95.86
2022-12-27T08:59:30.518Z,95.40
2022-12-27T09:04:41.990Z,95.31
2022-12-27T09:09:56.979Z,95.84
2022-12-27T09:15:02.806Z,94.72
2022-12-27T09:26:02.723Z,94.45
2022-12-27T09:31:06.838Z,94.85
2022-12-27T09:36:15.393Z,95.78
2022-12-27T09:42:45.919Z,95.37
2022-12-27T09:47:14.341Z,94.98
2022-12-27T09:52:22.403Z,94.78
2022-12-27T09:57:43.280Z,94.72
2022-12-27T10:02:45.302Z,94.79
2022-12-27T10:07:54.187Z,95.15
2022-12-27T10:13:16.783Z,95.54
2022-12-27T10:18:34.021Z,96.37
2022-12-27T10:23:38.160Z,96.36
2022-12-27T10:28:41.477Z,95.79
2022-12-27T10:33:46.190Z,95.58
2022-12-27T10:38:47.916Z,95.66
2022-12-27T10:43:53.637Z,95.54
2022-12-27T10:54:26.629Z,95.27
2022-12-27T10:59:28.865Z,95.40
2022-12-27T11:04:33.012Z,95.67
2022-12-27T11:09:50.782Z,96.07
2022-12-27T11:14:58.332Z,96.40
2022-12-27T11:20:03.247Z,96.68
2022-12-27T11:25:04.972Z,97.75
2022-12-27T11:30:07.580Z,98.03
2022-12-27T11:35:16.259Z,97.00
2022-12-27T11:40:21.510Z,96.57
2022-12-27T11:45:37.535Z,96.99
2022-12-27T11:50:39.060Z,98.80
2022-12-27T11:55:52.527Z,99.70
2022-12-27T12:00:54.173Z,98.47
2022-12-27T12:06:04.879Z,98.05
2022-12-27T12:11:06.719Z,97.71
2022-12-27T12:16:28.781Z,97.31
2022-12-27T12:21:30.478Z,97.91
2022-12-27T12:26:56.075Z,97.63
2022-12-27T12:32:19.343Z,97.92
2022-12-27T12:37:20.964Z,98.10
2022-12-27T12:42:49.427Z,98.04
2022-12-27T12:47:51.429Z,97.58
2022-12-27T12:59:31.725Z,97.92
2022-12-27T13:04:35.216Z,98.08
2022-12-27T13:09:55.622Z,98.05
2022-12-27T13:15:13.082Z,97.99
2022-12-27T13:20:26.099Z,97.13
2022-12-27T13:25:39.427Z,97.01
2022-12-27T13:30:41.048Z,97.26
2022-12-27T13:36:01.549Z,97.47
2022-12-27T13:41:06.344Z,97.51
2022-12-27T13:46:20.214Z,96.75
2022-12-27T13:51:22.071Z,97.47
2022-12-27T13:56:57.752Z,96.62
2022-12-27T14:02:18.346Z,96.54
2022-12-27T14:07:20.130Z,96.23
2022-12-27T14:12:42.175Z,96.09
2022-12-27T14:17:43.759Z,96.70
2022-12-27T14:22:54.285Z,95.85
2022-12-27T14:28:13.506Z,95.63
2022-12-27T14:33:21.373Z,95.22
2022-12-27T14:38:41.599Z,95.47
2022-12-27T14:44:05.153Z,95.95
2022-12-27T14:49:12.701Z,96.01
2022-12-27T14:54:52.591Z,95.32
2022-12-27T15:00:14.583Z,95.19
2022-12-27T15:05:21.999Z,94.34
2022-12-27T15:10:31.849Z,93.80
2022-12-27T15:15:41.021Z,93.53
2022-12-27T15:21:01.278Z,93.15
2022-12-27T15:26:21.295Z,92.60
2022-12-27T15:31:34.748Z,92.54
2022-12-27T15:36:46.965Z,92.29
2022-12-27T15:41:57.671Z,91.69
2022-12-27T15:47:14.358Z,91.53
2022-12-27T15:52:18.782Z,91.50
2022-12-27T15:57:28.645Z,91.55
2022-12-27T16:02:32.054Z,91.59
2022-12-27T16:07:38.400Z,90.91
2022-12-27T16:12:39.793Z,90.74
2022-12-27T16:17:54.306Z,90.70
2022-12-27T16:22:57.783Z,91.10
2022-12-27T16:28:04.833Z,90.71
2022-12-27T16:33:07.420Z,90.11
2022-12-27T16:38:21.162Z,90.63
2022-12-27T16:43:26.644Z,90.40
2022-12-27T16:48:45.004Z,90.86
2022-12-27T16:54:04.297Z,90.71
2022-12-27T16:59:25.615Z,91.29
2022-12-27T17:04:45.669Z,91.10
2022-12-27T17:09:47.135Z,90.76
2022-12-27T17:14:53.791Z,90.14
2022-12-27T17:19:55.186Z,90.51
2022-12-27T17:24:58.993Z,90.83
2022-12-27T17:30:18.646Z,91.01
2022-12-27T17:35:29.684Z,90.83
2022-12-27T17:40:33.985Z,91.42
2022-12-27T17:45:45.700Z,91.60
2022-12-27T17:50:47.379Z,91.55
2022-12-27T17:56:17.588Z,91.23
2022-12-27T18:01:19.103Z,90.58
2022-12-27T18:06:20.607Z,90.90
2022-12-27T18:11:27.778Z,91.43
2022-12-27T18:16:35.306Z,91.51
2022-12-27T18:21:36.662Z,91.31
2022-12-27T18:26:39.324Z,90.63
2022-12-27T18:31:47.559Z,91.47
2022-12-27T18:36:51.677Z,91.88
2022-12-27T18:41:54.311Z,91.71
2022-12-27T18:46:57.342Z,92.14
2022-12-27T18:52:00.220Z,92.21
2022-12-27T18:57:03.126Z,92.36
2022-12-27T19:02:23.217Z,92.75
2022-12-27T19:07:24.599Z,92.71
2022-12-27T19:12:33.926Z,92.47
2022-12-27T19:17:37.988Z,92.49
2022-12-27T19:22:50.013Z,92.51
2022-12-27T19:28:09.768Z,92.29
2022-12-27T19:33:20.332Z,91.73
2022-12-27T19:38:23.204Z,92.01
2022-12-27T19:43:25.936Z,91.29
2022-12-27T19:48:27.257Z,91.77
2022-12-27T19:53:31.073Z,91.80
2022-12-27T19:58:32.419Z,91.39
2022-12-27T20:03:34.296Z,91.73
2022-12-27T20:08:45.584Z,91.50
2022-12-27T20:13:47.480Z,90.84
2022-12-27T20:18:48.826Z,91.33
2022-12-27T20:23:50.182Z,90.27
2022-12-27T20:28:52.156Z,90.55
2022-12-27T20:33:55.050Z,90.55
2022-12-27T20:38:56.503Z,90.25
2022-12-27T20:43:58.222Z,90.38
2022-12-27T20:49:00.200Z,90.12
2022-12-27T20:54:02.197Z,90.44
2022-12-27T20:59:03.609Z,89.99
2022-12-27T21:04:05.247Z,89.78
2022-12-27T21:09:08.450Z,89.72
2022-12-27T21:14:10.806Z,90.03
2022-12-27T21:19:12.163Z,90.11
2022-12-27T21:24:14.207Z,89.56
2022-12-27T21:29:16.585Z,89.62
2022-12-27T21:34:17.993Z,89.80
2022-12-27T21:39:19.681Z,89.49
2022-12-27T21:44:25.043Z,89.83
2022-12-27T21:49:26.368Z,90.14
2022-12-27T21:54:27.689Z,89.48
2022-12-27T21:59:29.047Z,89.80
2022-12-27T22:04:30.365Z,90.65
2022-12-27T22:09:31.679Z,90.58
2022-12-27T22:14:36.843Z,90.41
2022-12-27T22:19:38.449Z,90.50
2022-12-27T22:24:39.758Z,90.96
2022-12-27T22:29:41.071Z,90.56
2022-12-27T22:34:42.377Z,90.52
2022-12-27T22:39:43.710Z,91.07
2022-12-27T22:44:45.061Z,90.50
2022-12-27T22:49:46.441Z,90.61
2022-12-27T22:55:04.295Z,90.81
2022-12-27T23:00:12.411Z,90.56
2022-12-27T23:05:13.923Z,91.15
2022-12-27T23:10:15.464Z,90.60
2022-12-27T23:15:16.860Z,91.29
2022-12-27T23:20:18.481Z,91.15
2022-12-27T23:25:19.796Z,91.30
2022-12-27T23:30:22.876Z,91.86
2022-12-27T23:35:24.198Z,91.60
2022-12-27T23:40:25.534Z,91.50
2022-12-27T23:45:26.849Z,91.68
2022-12-27T23:50:28.234Z,91.05
2022-12-27T23:55:29.562Z,90.70
